This is the latest recevied weather packets stored in our database for station/object PU2UHW-13. If no packets are shown the sender has not sent any weather packets the latest 1 day(s).
| Time | Temp. | Humidity | Pressure | Rain* | Wind** | Luminosity | Snow |
|---|---|---|---|---|---|---|---|
| 1778107134 | 20° C | 77% | 1021 hPa | - | - | - | - |
| 1778106415 | 20° C | 79% | 1020.9 hPa | - | - | - | - |
| 1778106235 | 20° C | 78% | 1020.8 hPa | - | - | - | - |
| 1778106055 | 20° C | 78% | 1020.8 hPa | - | - | - | - |
| 1778104255 | 20.56° C | 76% | 1020.5 hPa | - | - | - | - |
| 1778104075 | 20.56° C | 76% | 1020.6 hPa | - | - | - | - |
| 1778103175 | 21.11° C | 75% | 1020.5 hPa | - | - | - | - |
| 1778102995 | 20.56° C | 76% | 1020.5 hPa | - | - | - | - |
| 1778102095 | 21.67° C | 72% | 1019.9 hPa | - | - | - | - |
| 1778101915 | 21.67° C | 74% | 1020 hPa | - | - | - | - |
| 1778101735 | 21.67° C | 74% | 1020.1 hPa | - | - | - | - |
| 1778101555 | 22.22° C | 72% | 1019.8 hPa | - | - | - | - |
| 1778099575 | 22.78° C | 67% | 1019 hPa | - | - | - | - |
| 1778099395 | 23.33° C | 67% | 1018.9 hPa | - | - | - | - |
| 1778099215 | 23.33° C | 68% | 1018.9 hPa | - | - | - | - |
| 1778099035 | 23.33° C | 67% | 1019 hPa | - | - | - | - |
| 1778098495 | 24.44° C | 59% | 1018.4 hPa | - | - | - | - |
| 1778098135 | 24.44° C | 59% | 1018.5 hPa | - | - | - | - |
| 1778097955 | 24.44° C | 58% | 1018.4 hPa | - | - | - | - |
| 1778097415 | 25° C | 57% | 1018.1 hPa | - | - | - | - |
| 1778096875 | 25° C | 57% | 1018.2 hPa | - | - | - | - |
| 1778096695 | 25° C | 56% | 1018 hPa | - | - | - | - |
| 1778096515 | 25° C | 56% | 1018 hPa | - | - | - | - |
| 1778096335 | 25° C | 57% | 1018.1 hPa | - | - | - | - |
| 1778094715 | 26.11° C | 54% | 1017.8 hPa | - | - | - | - |
* Rain since midnight (hover to see other rain measurements)
** Current wind speed in m/s (hover to see current wind gust speed)